Time;durP1;ratioP1;P1;durP2;ratioP2;P2;SDS_P1;SDS_P2;PMS_P1;PMS_P2;Temp;Humidity;BMP_temperature;BMP_pressure;BME280_temperature;BME280_humidity;BME280_pressure;Samples;Min_cycle;Max_cycle;Signal;HPM_P1;HPM_P2
2023/10/01 00:00:05;;;;;;;11.43;4.70;;;14.70;99.90;;;;;;4966121;28;19914;-92
2023/10/01 00:02:32;;;;;;;10.15;4.20;;;14.70;99.90;;;;;;4961645;28;20051;-94
2023/10/01 00:04:58;;;;;;;9.63;3.28;;;14.70;99.90;;;;;;4978541;28;20081;-94
2023/10/01 00:07:23;;;;;;;13.85;4.28;;;14.80;99.90;;;;;;4978218;28;20438;-92
2023/10/01 00:09:49;;;;;;;10.27;4.43;;;14.80;99.90;;;;;;4970346;28;20022;-91
2023/10/01 00:12:15;;;;;;;11.57;4.03;;;14.90;99.90;;;;;;4963250;28;20035;-92
2023/10/01 00:14:42;;;;;;;10.32;4.10;;;14.90;99.90;;;;;;4962469;28;20011;-92
2023/10/01 00:17:09;;;;;;;13.43;3.88;;;14.90;99.90;;;;;;4962835;28;20034;-91
2023/10/01 00:19:35;;;;;;;9.75;4.57;;;14.90;99.90;;;;;;4967506;28;21570;-89
2023/10/01 00:22:00;;;;;;;12.75;3.83;;;14.90;99.90;;;;;;4966365;28;20027;-92
2023/10/01 00:24:26;;;;;;;8.48;4.13;;;14.90;99.90;;;;;;4967030;28;20065;-90
2023/10/01 00:26:52;;;;;;;8.80;3.70;;;14.90;99.90;;;;;;4965524;28;20122;-91
2023/10/01 00:29:19;;;;;;;9.48;4.07;;;14.90;99.90;;;;;;4966085;28;20026;-91
2023/10/01 00:31:49;;;;;;;10.30;3.83;;;14.90;99.90;;;;;;4966049;28;20200;-92
2023/10/01 00:34:16;;;;;;;10.68;4.38;;;15.00;99.90;;;;;;4967972;28;20055;-91
2023/10/01 00:36:43;;;;;;;14.38;4.22;;;15.00;99.90;;;;;;4970573;28;20102;-92
2023/10/01 00:39:09;;;;;;;10.68;3.95;;;15.00;99.90;;;;;;4980014;28;20023;-92
2023/10/01 00:41:35;;;;;;;7.68;3.45;;;15.10;99.90;;;;;;4979505;28;20031;-92
2023/10/01 00:44:03;;;;;;;8.93;3.85;;;15.10;99.90;;;;;;4964665;28;20033;-91
2023/10/01 00:46:29;;;;;;;9.45;3.67;;;15.10;99.90;;;;;;4967837;28;20019;-89
2023/10/01 00:48:56;;;;;;;8.20;3.47;;;15.10;99.90;;;;;;4969246;28;20519;-91
2023/10/01 00:51:21;;;;;;;10.57;3.40;;;15.20;99.90;;;;;;4966915;28;20038;-90
2023/10/01 00:53:49;;;;;;;9.32;3.35;;;15.20;99.90;;;;;;4968368;28;20019;-90
2023/10/01 00:56:16;;;;;;;8.70;4.03;;;15.20;99.90;;;;;;4966300;28;20027;-91
2023/10/01 00:58:43;;;;;;;8.48;3.50;;;15.20;99.90;;;;;;4962550;28;20035;-92
2023/10/01 01:01:10;;;;;;;11.48;3.00;;;15.20;99.90;;;;;;4964133;28;20070;-90
2023/10/01 01:03:36;;;;;;;6.38;2.70;;;15.20;99.90;;;;;;4969297;28;20035;-91
2023/10/01 01:08:33;;;;;;;9.07;2.70;;;15.20;99.90;;;;;;4972431;28;20027;-91
2023/10/01 01:11:03;;;;;;;7.25;2.63;;;15.30;99.90;;;;;;4971948;28;20030;-89
2023/10/01 01:13:33;;;;;;;5.93;2.15;;;15.20;99.90;;;;;;4969947;28;20026;-90
2023/10/01 01:16:00;;;;;;;5.25;2.47;;;15.30;99.90;;;;;;4978255;28;20042;-91
2023/10/01 01:18:33;;;;;;;6.90;2.95;;;15.30;99.90;;;;;;4987024;28;20031;-90
2023/10/01 01:21:05;;;;;;;3.30;2.47;;;15.30;99.90;;;;;;4988939;28;20025;-92
2023/10/01 01:23:31;;;;;;;8.60;3.00;;;15.30;99.90;;;;;;4991012;28;20015;-90
2023/10/01 01:25:57;;;;;;;5.70;2.80;;;15.40;99.90;;;;;;4987724;28;20019;-92
2023/10/01 01:28:32;;;;;;;4.70;3.00;;;15.40;99.90;;;;;;4966084;28;20033;-92
2023/10/01 01:31:03;;;;;;;9.25;3.53;;;15.40;99.90;;;;;;4963268;28;20113;-91
2023/10/01 01:33:33;;;;;;;5.93;3.00;;;15.40;99.90;;;;;;4965079;28;20031;-92
2023/10/01 01:35:59;;;;;;;8.82;2.88;;;15.40;99.90;;;;;;4969324;28;20240;-92
2023/10/01 01:38:27;;;;;;;8.65;3.33;;;15.50;99.90;;;;;;4971317;28;20038;-91
2023/10/01 01:40:53;;;;;;;9.80;3.97;;;15.50;99.90;;;;;;4967527;28;20046;-91
2023/10/01 01:43:22;;;;;;;10.25;3.67;;;15.50;99.90;;;;;;4967907;28;20026;-91
2023/10/01 01:46:03;;;;;;;9.90;4.00;;;15.50;99.90;;;;;;4970097;28;20022;-92
2023/10/01 01:51:00;;;;;;;8.15;3.80;;;15.50;99.90;;;;;;4986641;28;20026;-90
2023/10/01 01:53:34;;;;;;;9.50;3.80;;;15.60;99.90;;;;;;4972145;28;20121;-92
2023/10/01 01:56:04;;;;;;;8.30;3.97;;;15.60;99.90;;;;;;4971084;28;20042;-92
2023/10/01 01:58:33;;;;;;;6.72;3.72;;;15.60;99.90;;;;;;4969615;28;20019;-91
2023/10/01 02:01:08;;;;;;;9.77;3.88;;;15.60;99.90;;;;;;4969222;28;20114;-92
2023/10/01 02:03:37;;;;;;;7.75;3.20;;;15.60;99.90;;;;;;4965738;28;20042;-91
2023/10/01 02:06:09;;;;;;;9.73;3.63;;;15.60;99.90;;;;;;4988836;28;20041;-91
2023/10/01 02:08:49;;;;;;;7.90;3.33;;;15.60;99.90;;;;;;4970251;28;20018;-91
2023/10/01 02:11:19;;;;;;;;;;;15.60;99.90;;;;;;4970641;28;20121;-92
2023/10/01 02:13:50;;;;;;;4.90;2.15;;;15.70;99.90;;;;;;4972138;28;19996;-94
2023/10/01 02:16:35;;;;;;;5.50;2.90;;;15.70;99.90;;;;;;4972251;28;20585;-90
2023/10/01 02:19:15;;;;;;;3.38;2.20;;;15.70;99.90;;;;;;4984771;28;20019;-90
2023/10/01 02:22:00;;;;;;;4.07;2.17;;;15.70;99.90;;;;;;4967845;28;20026;-91
2023/10/01 02:24:44;;;;;;;5.05;2.22;;;15.70;99.90;;;;;;4967292;28;20018;-92
2023/10/01 02:27:13;;;;;;;2.30;1.40;;;15.70;99.90;;;;;;4984144;28;20041;-91
2023/10/01 02:29:45;;;;;;;3.33;1.73;;;15.70;99.90;;;;;;4967814;28;20424;-92
2023/10/01 02:32:15;;;;;;;2.10;1.42;;;15.70;99.90;;;;;;4961713;28;20055;-93
2023/10/01 02:34:44;;;;;;;2.58;1.60;;;15.70;99.90;;;;;;4961692;28;20202;-90
2023/10/01 02:37:10;;;;;;;3.20;1.50;;;15.70;99.90;;;;;;4965061;28;20077;-92
2023/10/01 02:39:37;;;;;;;3.97;1.50;;;15.70;99.90;;;;;;4964023;28;20042;-92
2023/10/01 02:44:47;;;;;;;2.50;1.25;;;15.80;99.90;;;;;;4963464;28;20388;-91
2023/10/01 02:47:20;;;;;;;2.85;1.65;;;15.80;99.90;;;;;;4967053;28;20531;-92
2023/10/01 02:49:53;;;;;;;3.20;1.30;;;15.80;99.90;;;;;;4963389;28;20027;-92
2023/10/01 02:52:26;;;;;;;2.00;1.15;;;15.80;99.90;;;;;;4961053;28;20472;-92
2023/10/01 02:54:54;;;;;;;2.28;1.30;;;15.80;99.90;;;;;;4964785;28;20019;-90
2023/10/01 02:57:23;;;;;;;4.00;1.25;;;15.80;99.90;;;;;;4964961;28;20038;-90
2023/10/01 03:02:57;;;;;;;1.45;1.02;;;15.80;99.90;;;;;;4926758;29;20031;-92
2023/10/01 03:07:52;;;;;;;1.88;1.27;;;15.90;99.90;;;;;;4925758;29;20046;-91
2023/10/01 03:10:25;;;;;;;1.38;1.00;;;15.90;99.90;;;;;;4910208;29;20122;-93
2023/10/01 03:12:58;;;;;;;3.45;0.88;;;15.90;99.90;;;;;;4910080;29;20027;-91
2023/10/01 03:15:25;;;;;;;2.20;1.20;;;15.90;99.90;;;;;;4924396;29;20035;-93
2023/10/01 03:17:56;;;;;;;3.60;1.05;;;15.90;99.90;;;;;;4909696;29;20059;-92
2023/10/01 03:26:11;;;;;;;2.45;0.80;;;16.00;99.90;;;;;;4926402;29;20100;-90
2023/10/01 03:31:23;;;;;;;1.30;1.00;;;16.00;99.90;;;;;;4922810;29;20050;-93
2023/10/01 03:33:53;;;;;;;1.42;0.98;;;16.10;99.90;;;;;;4909960;29;20607;-90
2023/10/01 03:36:25;;;;;;;2.25;0.70;;;16.10;99.90;;;;;;4940753;28;20050;-92
2023/10/01 03:38:59;;;;;;;2.95;0.90;;;16.10;99.90;;;;;;4963862;28;20090;-93
2023/10/01 03:41:27;;;;;;;2.35;1.00;;;16.10;99.90;;;;;;4963069;28;20027;-92
2023/10/01 03:44:08;;;;;;;2.92;0.90;;;16.10;99.90;;;;;;4966525;28;20027;-92
2023/10/01 03:46:42;;;;;;;1.92;1.00;;;16.20;99.90;;;;;;4966477;28;20041;-93
2023/10/01 03:51:52;;;;;;;2.13;1.45;;;16.20;99.90;;;;;;4966078;28;20042;-93
2023/10/01 03:57:18;;;;;;;5.03;1.13;;;16.20;99.90;;;;;;4966752;28;20632;-93
2023/10/01 03:59:53;;;;;;;1.45;1.30;;;16.30;99.90;;;;;;4966747;28;20038;-93
2023/10/01 04:02:27;;;;;;;2.30;1.40;;;16.30;99.90;;;;;;4965403;28;20019;-92
2023/10/01 04:04:58;;;;;;;4.13;1.08;;;16.30;99.90;;;;;;4965401;28;20089;-93
2023/10/01 04:07:42;;;;;;;2.10;1.20;;;16.30;99.90;;;;;;4967964;28;20094;-91
2023/10/01 04:10:19;;;;;;;3.65;1.27;;;16.40;99.90;;;;;;4966427;28;20527;-91
2023/10/01 04:12:49;;;;;;;5.05;1.30;;;16.30;99.90;;;;;;4969371;28;20434;-91
2023/10/01 04:15:27;;;;;;;4.00;1.20;;;16.40;99.90;;;;;;4968871;28;20038;-91
2023/10/01 04:18:09;;;;;;;3.15;1.15;;;16.40;99.90;;;;;;4968335;28;20054;-90
2023/10/01 04:20:36;;;;;;;3.03;1.10;;;16.40;99.90;;;;;;4968434;28;20021;-91
2023/10/01 04:23:04;;;;;;;2.97;1.05;;;16.40;99.90;;;;;;4966665;28;20039;-92
2023/10/01 04:25:38;;;;;;;3.60;0.77;;;16.40;99.90;;;;;;4969602;28;20033;-92
2023/10/01 04:28:08;;;;;;;2.15;0.82;;;16.40;99.90;;;;;;4965975;28;20029;-92
2023/10/01 04:30:34;;;;;;;3.15;0.77;;;16.50;99.90;;;;;;4965611;28;20070;-91
2023/10/01 04:33:18;;;;;;;0.63;0.63;;;16.50;99.90;;;;;;4966913;28;20099;-92
2023/10/01 04:35:58;;;;;;;3.00;1.20;;;16.50;99.90;;;;;;4986677;28;20126;-92
2023/10/01 04:38:26;;;;;;;1.25;0.60;;;16.50;99.90;;;;;;4970302;28;20066;-91
2023/10/01 04:40:55;;;;;;;3.30;0.90;;;16.50;99.90;;;;;;4987931;28;20030;-91
2023/10/01 04:43:20;;;;;;;1.38;0.90;;;16.50;99.90;;;;;;4969726;28;20484;-93
2023/10/01 04:45:47;;;;;;;1.25;0.85;;;16.50;99.90;;;;;;4971526;28;20033;-92
2023/10/01 04:48:22;;;;;;;0.93;0.80;;;16.50;99.90;;;;;;4985281;28;20109;-92
2023/10/01 04:50:50;;;;;;;3.10;1.00;;;16.50;99.90;;;;;;4970456;28;20027;-94
2023/10/01 04:53:19;;;;;;;3.03;1.35;;;16.50;99.90;;;;;;4971509;28;20023;-93
2023/10/01 04:55:57;;;;;;;4.18;1.48;;;16.50;99.90;;;;;;4973007;28;20054;-92
2023/10/01 04:58:24;;;;;;;3.00;1.20;;;16.60;99.90;;;;;;4988032;28;20045;-92
2023/10/01 05:00:50;;;;;;;1.38;0.90;;;16.60;99.90;;;;;;4973865;28;20018;-90
2023/10/01 05:03:16;;;;;;;1.67;1.00;;;16.50;99.90;;;;;;4971246;28;20110;-92
2023/10/01 05:05:44;;;;;;;2.95;0.80;;;16.50;99.90;;;;;;4970528;28;20437;-93
2023/10/01 05:08:13;;;;;;;1.00;0.60;;;16.50;99.90;;;;;;4971639;28;20027;-91
2023/10/01 05:10:52;;;;;;;1.98;0.60;;;16.50;99.90;;;;;;4973935;28;20042;-92
2023/10/01 05:13:24;;;;;;;0.77;0.70;;;16.50;99.90;;;;;;4966428;28;20058;-91
2023/10/01 05:15:55;;;;;;;1.10;0.50;;;16.60;99.90;;;;;;4979516;28;20027;-92
2023/10/01 05:18:27;;;;;;;0.60;0.60;;;16.50;99.90;;;;;;4971227;28;20035;-91
2023/10/01 05:20:58;;;;;;;1.00;0.50;;;16.60;99.90;;;;;;4977007;28;20018;-92
2023/10/01 05:23:25;;;;;;;0.60;0.60;;;16.50;99.90;;;;;;4977494;28;20030;-91
2023/10/01 05:25:51;;;;;;;0.52;0.52;;;16.50;99.90;;;;;;4994599;28;20018;-92
2023/10/01 05:28:31;;;;;;;1.50;0.70;;;16.60;99.90;;;;;;4969735;28;20028;-95
2023/10/01 05:31:05;;;;;;;1.60;0.73;;;16.60;99.90;;;;;;4978617;28;20030;-91
2023/10/01 05:33:46;;;;;;;2.13;0.85;;;16.60;99.90;;;;;;4995556;28;20070;-95
2023/10/01 05:36:13;;;;;;;1.65;1.23;;;16.60;99.90;;;;;;4989018;28;20031;-93
2023/10/01 05:38:43;;;;;;;1.33;1.02;;;16.60;99.90;;;;;;4976863;28;20030;-93
2023/10/01 05:41:16;;;;;;;2.92;1.30;;;16.60;99.90;;;;;;4975484;28;20026;-92
2023/10/01 05:43:50;;;;;;;2.70;1.00;;;16.60;99.90;;;;;;4967211;28;20063;-91
2023/10/01 05:46:22;;;;;;;2.42;1.10;;;16.60;99.90;;;;;;4992629;28;20070;-93
2023/10/01 05:48:55;;;;;;;1.13;0.80;;;16.50;99.90;;;;;;4975526;28;20105;-90
2023/10/01 05:51:30;;;;;;;1.20;0.80;;;16.50;99.90;;;;;;4979974;28;20576;-91
2023/10/01 05:53:56;;;;;;;1.20;1.10;;;16.50;99.90;;;;;;4996067;28;20049;-92
2023/10/01 05:56:22;;;;;;;0.65;0.65;;;16.50;99.90;;;;;;4977995;28;20048;-93
2023/10/01 05:58:48;;;;;;;0.60;0.60;;;16.60;99.90;;;;;;4975596;28;20029;-92
2023/10/01 06:01:14;;;;;;;3.97;0.68;;;16.60;99.90;;;;;;4982120;28;20454;-93
2023/10/01 06:03:51;;;;;;;0.50;0.50;;;16.60;99.90;;;;;;4976364;28;20023;-94
2023/10/01 06:06:26;;;;;;;0.55;0.40;;;16.60;99.90;;;;;;4992842;28;20030;-92
2023/10/01 06:08:59;;;;;;;0.60;0.60;;;16.60;99.90;;;;;;4971621;28;20022;-93
2023/10/01 06:11:38;;;;;;;2.80;0.82;;;16.60;99.90;;;;;;4962998;28;20476;-91
2023/10/01 06:14:29;;;;;;;0.63;0.50;;;16.60;99.90;;;;;;4971557;28;20035;-92
2023/10/01 06:17:00;;;;;;;0.55;0.38;;;16.60;99.90;;;;;;4984165;28;20050;-93
2023/10/01 06:19:28;;;;;;;0.75;0.60;;;16.70;99.90;;;;;;4969474;28;20019;-91
2023/10/01 06:22:12;;;;;;;0.45;0.45;;;16.60;99.90;;;;;;4967044;28;20117;-91
2023/10/01 06:24:39;;;;;;;0.35;0.35;;;16.60;99.90;;;;;;4968777;28;20476;-93
2023/10/01 06:27:06;;;;;;;0.40;0.30;;;16.60;99.90;;;;;;4966673;28;20026;-93
2023/10/01 06:29:33;;;;;;;1.75;0.40;;;16.60;99.90;;;;;;4986052;28;20380;-91
2023/10/01 06:32:01;;;;;;;0.30;0.30;;;16.70;99.90;;;;;;4967902;28;20089;-93
2023/10/01 06:34:34;;;;;;;0.20;0.20;;;16.70;99.90;;;;;;4970716;28;20149;-91
2023/10/01 06:37:01;;;;;;;1.10;0.30;;;16.70;99.90;;;;;;4974670;28;20038;-93
2023/10/01 06:39:33;;;;;;;0.20;0.20;;;16.80;99.90;;;;;;4974461;28;20022;-93
2023/10/01 06:42:18;;;;;;;0.20;0.20;;;16.70;99.90;;;;;;4982841;28;20047;-92
2023/10/01 06:44:45;;;;;;;0.17;0.10;;;16.80;99.90;;;;;;4969996;28;20021;-93
2023/10/01 06:47:17;;;;;;;0.20;0.20;;;16.70;99.90;;;;;;4972463;28;20110;-92
2023/10/01 06:52:44;;;;;;;0.35;0.20;;;16.70;99.90;;;;;;4954824;28;20081;-91
2023/10/01 06:55:25;;;;;;;0.77;0.30;;;16.70;99.90;;;;;;4970954;28;20022;-92
2023/10/01 06:57:52;;;;;;;0.95;0.30;;;16.70;99.90;;;;;;4970329;28;20117;-92
2023/10/01 07:00:22;;;;;;;0.63;0.30;;;16.70;99.90;;;;;;4969403;28;20385;-91
2023/10/01 07:02:51;;;;;;;1.25;0.30;;;16.70;99.90;;;;;;4974654;28;20438;-92
2023/10/01 07:05:20;;;;;;;0.47;0.40;;;16.70;99.90;;;;;;4992402;28;20030;-92
2023/10/01 07:07:48;;;;;;;1.50;0.38;;;16.70;99.90;;;;;;4989659;28;20109;-92
2023/10/01 07:10:14;;;;;;;0.80;0.30;;;16.70;99.90;;;;;;4970944;28;20502;-92
2023/10/01 07:12:53;;;;;;;0.30;0.30;;;16.80;99.90;;;;;;4991516;28;20022;-93
2023/10/01 07:15:20;;;;;;;1.10;0.30;;;16.80;99.90;;;;;;4972459;28;20149;-91
2023/10/01 07:17:47;;;;;;;0.77;0.50;;;16.80;99.90;;;;;;4975576;28;20104;-92
2023/10/01 07:20:18;;;;;;;1.42;0.70;;;16.80;99.90;;;;;;4987382;28;20464;-92
2023/10/01 07:22:44;;;;;;;0.90;0.90;;;16.80;99.90;;;;;;4962419;28;20360;-92
2023/10/01 07:25:28;;;;;;;1.75;1.10;;;16.80;99.90;;;;;;4964058;28;20033;-92
2023/10/01 07:27:55;;;;;;;1.02;0.90;;;16.90;99.90;;;;;;4975356;28;20026;-91
2023/10/01 07:30:39;;;;;;;2.83;0.88;;;17.00;99.90;;;;;;4967510;28;20038;-93
2023/10/01 07:33:06;;;;;;;1.05;0.80;;;17.00;99.90;;;;;;4993031;28;20018;-93
2023/10/01 07:35:41;;;;;;;1.85;0.65;;;17.00;99.90;;;;;;4969723;28;20094;-92
2023/10/01 07:38:07;;;;;;;0.80;0.80;;;17.00;99.90;;;;;;4970328;28;20045;-93
2023/10/01 07:40:52;;;;;;;0.70;0.70;;;17.00;99.90;;;;;;4976613;28;20014;-92
2023/10/01 07:43:21;;;;;;;1.70;0.80;;;17.10;99.90;;;;;;5005470;28;20030;-91
2023/10/01 07:45:57;;;;;;;1.70;1.02;;;17.10;99.90;;;;;;4993268;28;20029;-93
2023/10/01 07:48:24;;;;;;;2.25;1.00;;;17.10;99.90;;;;;;4982533;28;20033;-93
2023/10/01 07:50:53;;;;;;;2.08;0.70;;;17.10;99.90;;;;;;4969210;28;20029;-93
2023/10/01 07:53:32;;;;;;;1.58;0.98;;;17.10;99.90;;;;;;4971836;28;20042;-93
2023/10/01 07:56:06;;;;;;;2.58;1.50;;;17.10;99.90;;;;;;4989559;28;20117;-93
2023/10/01 07:58:45;;;;;;;1.02;0.98;;;17.10;99.90;;;;;;4973984;28;20023;-93
2023/10/01 08:04:00;;;;;;;2.10;1.00;;;17.20;99.90;;;;;;4988918;28;20045;-92
2023/10/01 08:06:31;;;;;;;1.20;1.10;;;17.10;99.90;;;;;;4979173;28;20168;-93
2023/10/01 08:09:01;;;;;;;2.88;1.30;;;17.20;99.90;;;;;;4982939;28;20037;-91
2023/10/01 08:14:20;;;;;;;1.85;1.10;;;17.20;99.90;;;;;;5003193;28;20479;-92
2023/10/01 08:16:51;;;;;;;1.30;0.80;;;17.20;99.90;;;;;;4983604;28;20041;-93
2023/10/01 08:19:20;;;;;;;;;;;17.20;99.90;;;;;;4980955;28;20289;-91
2023/10/01 08:21:53;;;;;;;0.90;0.90;;;17.20;99.90;;;;;;4975965;28;19953;-92
2023/10/01 08:24:33;;;;;;;1.25;0.60;;;17.20;99.90;;;;;;4976417;28;20026;-92
2023/10/01 08:27:04;;;;;;;0.40;0.40;;;17.30;99.90;;;;;;4992874;28;20045;-92
2023/10/01 08:30:32;;;;;;;;;;;;;;;;;;;;;
2023/10/01 08:33:18;;;;;;;0.63;0.30;;;17.30;99.90;;;;;;4989908;28;20045;-93
2023/10/01 08:41:51;;;;;;;0.40;0.40;;;17.50;99.90;;;;;;4943787;29;20046;-91
2023/10/01 08:44:30;;;;;;;0.38;0.30;;;17.50;99.90;;;;;;4960973;28;20030;-92
2023/10/01 08:47:21;;;;;;;0.20;0.20;;;17.50;99.90;;;;;;4994558;28;20188;-91
2023/10/01 08:49:51;;;;;;;0.25;0.25;;;17.50;99.90;;;;;;4977405;28;20064;-91
2023/10/01 08:52:25;;;;;;;1.65;0.30;;;17.50;99.90;;;;;;4977406;28;20057;-92
2023/10/01 08:54:55;;;;;;;0.20;0.20;;;17.60;99.90;;;;;;4976944;28;20046;-92
2023/10/01 08:57:37;;;;;;;0.20;0.20;;;17.60;99.90;;;;;;4976861;28;20451;-94
2023/10/01 09:00:18;;;;;;;1.45;0.38;;;17.70;99.90;;;;;;4977191;28;20041;-91
2023/10/01 09:02:55;;;;;;;0.20;0.20;;;17.70;99.90;;;;;;4994963;28;20038;-95
2023/10/01 09:05:25;;;;;;;0.17;0.17;;;17.70;99.90;;;;;;4977560;28;20030;-93
2023/10/01 09:10:50;;;;;;;0.20;0.20;;;17.70;99.90;;;;;;4994526;28;20079;-92
2023/10/01 09:13:21;;;;;;;1.67;0.40;;;17.70;99.90;;;;;;4976789;28;20065;-92
2023/10/01 09:15:55;;;;;;;0.90;0.35;;;17.70;99.90;;;;;;4976420;28;20037;-92
2023/10/01 09:18:25;;;;;;;0.47;0.47;;;17.70;99.90;;;;;;4977403;28;20030;-94
2023/10/01 09:23:54;;;;;;;2.05;0.40;;;17.80;99.90;;;;;;4995502;28;20117;-94
2023/10/01 09:26:37;;;;;;;0.30;0.30;;;17.90;99.90;;;;;;4978058;28;20026;-95
2023/10/01 09:29:13;;;;;;;0.10;0.10;;;17.90;99.90;;;;;;4993713;28;20022;-95
2023/10/01 09:31:53;;;;;;;0.20;0.20;;;18.00;99.90;;;;;;4976069;28;20038;-94
2023/10/01 09:34:33;;;;;;;0.20;0.20;;;18.00;99.90;;;;;;4994376;28;20069;-94
2023/10/01 09:37:12;;;;;;;0.20;0.20;;;18.00;99.90;;;;;;4977154;28;20565;-94
2023/10/01 09:39:41;;;;;;;0.77;0.20;;;18.00;99.90;;;;;;4978249;28;20026;-93
2023/10/01 09:42:24;;;;;;;0.20;0.20;;;18.00;99.90;;;;;;4977726;28;20022;-93
2023/10/01 09:44:52;;;;;;;0.55;0.28;;;18.00;99.90;;;;;;4977832;28;20022;-94
2023/10/01 09:47:27;;;;;;;0.25;0.20;;;18.00;99.90;;;;;;4977459;28;20022;-93
2023/10/01 09:49:57;;;;;;;2.97;0.38;;;17.90;99.90;;;;;;4977461;28;20022;-92
2023/10/01 09:52:27;;;;;;;;;;;17.90;99.90;;;;;;4977798;28;20027;-92
2023/10/01 09:55:26;;;;;;;0.32;0.30;;;17.90;99.90;;;;;;4977312;28;19920;-93
2023/10/01 09:57:54;;;;;;;0.20;0.20;;;17.90;99.90;;;;;;4978265;28;20034;-95
2023/10/01 10:00:21;;;;;;;0.30;0.30;;;17.90;99.90;;;;;;4981304;28;20022;-94
2023/10/01 10:02:51;;;;;;;1.13;0.43;;;17.80;99.90;;;;;;4983496;28;20059;-91
2023/10/01 10:05:26;;;;;;;3.42;0.50;;;17.80;99.90;;;;;;4976822;28;20018;-91
2023/10/01 10:08:13;;;;;;;0.50;0.40;;;17.80;99.90;;;;;;4976034;28;20062;-91
2023/10/01 10:10:48;;;;;;;0.55;0.40;;;17.80;99.90;;;;;;4977803;28;20026;-91
2023/10/01 10:13:45;;;;;;;2.40;0.82;;;17.80;99.90;;;;;;4977354;28;20121;-92
2023/10/01 10:16:33;;;;;;;0.35;0.35;;;17.80;99.90;;;;;;4976080;28;20034;-92
2023/10/01 10:19:21;;;;;;;0.50;0.50;;;17.80;99.90;;;;;;4974854;28;20041;-92
2023/10/01 10:24:30;;;;;;;;;;;17.80;99.90;;;;;;4994583;28;20026;-94
2023/10/01 10:27:15;;;;;;;2.05;0.47;;;17.70;99.90;;;;;;4976032;28;20017;-92
2023/10/01 10:29:47;;;;;;;1.00;0.40;;;17.80;99.90;;;;;;4975855;28;20236;-92
2023/10/01 10:32:16;;;;;;;0.20;0.20;;;17.80;99.90;;;;;;4975983;28;20018;-93
2023/10/01 10:35:04;;;;;;;0.50;0.40;;;17.70;99.90;;;;;;4974878;28;20038;-93
2023/10/01 10:37:35;;;;;;;2.42;0.47;;;17.70;99.90;;;;;;4975372;28;20053;-93
2023/10/01 10:42:46;;;;;;;0.65;0.30;;;17.70;99.90;;;;;;4993099;28;20057;-92
2023/10/01 10:48:04;;;;;;;0.50;0.43;;;17.60;99.90;;;;;;4992967;28;20066;-94
2023/10/01 10:50:49;;;;;;;0.70;0.40;;;17.60;99.90;;;;;;4975870;28;20065;-92
2023/10/01 10:53:21;;;;;;;0.77;0.30;;;17.60;99.90;;;;;;4975492;28;20031;-92
2023/10/01 10:56:00;;;;;;;0.57;0.40;;;17.60;99.90;;;;;;4974494;28;20391;-93
2023/10/01 10:58:28;;;;;;;0.52;0.32;;;17.50;99.90;;;;;;4975319;28;20034;-93
2023/10/01 11:00:55;;;;;;;1.08;0.68;;;17.50;99.90;;;;;;4975585;28;20037;-94
2023/10/01 11:03:43;;;;;;;0.88;0.30;;;17.50;99.90;;;;;;4975617;28;20034;-94
2023/10/01 11:06:18;;;;;;;0.47;0.30;;;17.50;99.90;;;;;;4987094;28;20026;-94
2023/10/01 11:08:51;;;;;;;0.45;0.30;;;17.50;99.90;;;;;;4979902;28;20075;-93
2023/10/01 11:11:29;;;;;;;0.68;0.35;;;17.50;99.90;;;;;;4985576;28;20442;-92
2023/10/01 11:14:00;;;;;;;0.45;0.30;;;17.50;99.90;;;;;;4987094;28;20080;-91
2023/10/01 11:16:33;;;;;;;0.45;0.20;;;17.50;99.90;;;;;;4987794;28;20042;-91
2023/10/01 11:19:13;;;;;;;0.60;0.22;;;17.50;99.90;;;;;;4985804;28;20061;-91
2023/10/01 11:22:06;;;;;;;0.33;0.20;;;17.60;99.90;;;;;;4984208;28;20022;-93
2023/10/01 11:24:42;;;;;;;3.97;0.50;;;17.60;99.90;;;;;;4983147;28;20022;-93
2023/10/01 11:30:17;;;;;;;0.20;0.20;;;17.60;99.90;;;;;;4995325;28;20053;-93
2023/10/01 11:32:58;;;;;;;0.22;0.20;;;17.60;99.90;;;;;;4978681;28;20045;-92
2023/10/01 11:35:32;;;;;;;;;;;17.60;99.90;;;;;;4978558;28;20042;-93
2023/10/01 11:38:19;;;;;;;0.20;0.20;;;17.70;99.90;;;;;;4977271;28;19921;-91
2023/10/01 11:43:41;;;;;;;0.25;0.20;;;17.70;99.90;;;;;;4994611;28;20032;-93
2023/10/01 11:46:24;;;;;;;0.38;0.20;;;17.80;99.90;;;;;;4977214;28;20025;-90
2023/10/01 11:49:17;;;;;;;0.60;0.38;;;17.80;99.90;;;;;;4976547;28;20065;-92
2023/10/01 11:51:48;;;;;;;0.50;0.38;;;17.90;99.90;;;;;;4977067;28;20030;-93
2023/10/01 11:54:22;;;;;;;0.20;0.20;;;17.90;99.90;;;;;;4975687;28;20439;-92
2023/10/01 11:57:04;;;;;;;0.40;0.30;;;17.90;99.90;;;;;;4977478;28;20030;-92
2023/10/01 11:59:31;;;;;;;0.60;0.45;;;17.90;99.90;;;;;;4976593;28;20030;-92
2023/10/01 12:02:15;;;;;;;0.25;0.25;;;17.90;99.90;;;;;;4976503;28;20038;-93
2023/10/01 12:04:44;;;;;;;0.73;0.30;;;17.90;99.90;;;;;;4981183;28;20062;-92
2023/10/01 12:07:16;;;;;;;0.63;0.40;;;17.90;99.90;;;;;;4979790;28;20507;-93
2023/10/01 12:09:48;;;;;;;2.92;0.30;;;17.90;99.90;;;;;;4975871;28;20035;-92
2023/10/01 12:12:21;;;;;;;1.10;0.40;;;17.90;99.90;;;;;;4976580;28;20014;-92
2023/10/01 12:14:56;;;;;;;0.40;0.40;;;17.80;99.90;;;;;;4979727;28;20038;-92
2023/10/01 12:17:26;;;;;;;0.75;0.40;;;17.80;99.90;;;;;;4979226;28;20030;-91
2023/10/01 12:19:58;;;;;;;0.95;0.55;;;17.90;99.90;;;;;;4979891;28;20100;-92
2023/10/01 12:22:24;;;;;;;2.30;0.20;;;17.90;99.90;;;;;;4979147;28;20027;-92
2023/10/01 12:24:58;;;;;;;2.63;0.30;;;17.90;99.90;;;;;;4978979;28;20148;-93
2023/10/01 12:27:41;;;;;;;0.63;0.30;;;17.90;99.90;;;;;;4979881;28;20080;-93
2023/10/01 12:30:27;;;;;;;0.40;0.40;;;17.90;99.90;;;;;;4979268;28;20028;-93
2023/10/01 12:32:59;;;;;;;1.77;0.50;;;17.90;99.90;;;;;;4979392;28;20035;-92
2023/10/01 12:35:31;;;;;;;1.67;0.50;;;17.90;99.90;;;;;;4978373;28;20041;-92
2023/10/01 12:40:49;;;;;;;0.47;0.40;;;18.00;99.90;;;;;;4996754;28;20432;-92
2023/10/01 12:46:19;;;;;;;1.05;0.30;;;18.10;99.90;;;;;;4955736;28;20083;-92
2023/10/01 12:51:33;;;;;;;0.60;0.43;;;18.20;99.90;;;;;;4955757;29;20046;-92
2023/10/01 12:53:59;;;;;;;1.08;0.77;;;18.20;99.90;;;;;;4939918;29;20067;-93
2023/10/01 12:56:44;;;;;;;2.22;0.60;;;18.20;99.90;;;;;;4942412;29;20023;-94
2023/10/01 12:59:18;;;;;;;0.75;0.60;;;18.20;99.90;;;;;;4943936;29;20094;-93
2023/10/01 13:01:50;;;;;;;0.30;0.20;;;18.20;99.90;;;;;;4942351;29;20126;-93
2023/10/01 13:04:25;;;;;;;0.40;0.40;;;18.30;99.90;;;;;;4940895;29;20071;-92
2023/10/01 13:07:03;;;;;;;0.75;0.57;;;18.30;99.90;;;;;;4943694;29;20085;-93
2023/10/01 13:12:17;;;;;;;0.57;0.57;;;18.30;99.90;;;;;;4958566;29;20087;-93
2023/10/01 13:15:14;;;;;;;1.60;0.60;;;18.30;99.90;;;;;;4950740;29;20473;-93
2023/10/01 13:17:38;;;;;;;3.78;1.73;;;18.30;99.90;;;;;;4989014;28;20043;-93
2023/10/01 13:20:18;;;;;;;3.97;1.17;;;18.30;99.90;;;;;;4987443;28;20014;-94
2023/10/01 13:22:49;;;;;;;4.50;1.20;;;18.30;99.90;;;;;;4987926;28;20120;-93
2023/10/01 13:25:19;;;;;;;2.35;0.90;;;18.30;99.90;;;;;;4988042;28;20026;-93
2023/10/01 13:27:50;;;;;;;;;;;18.30;99.90;;;;;;4988559;28;20026;-93
2023/10/01 13:30:20;;;;;;;1.88;0.95;;;18.40;99.90;;;;;;4985649;28;19964;-94
2023/10/01 13:35:35;;;;;;;1.25;0.57;;;18.40;99.90;;;;;;5009232;28;20061;-94
2023/10/01 13:38:26;;;;;;;3.83;0.63;;;18.40;99.90;;;;;;4991511;28;20026;-95
2023/10/01 14:08:43;;;;;;;3.20;1.20;;;18.20;99.90;;;;;;5004613;28;20058;-94
2023/10/01 14:11:10;;;;;;;2.17;1.20;;;18.20;99.90;;;;;;4990962;28;20038;-92
2023/10/01 14:13:36;;;;;;;0.93;0.50;;;18.10;99.90;;;;;;4985869;28;21166;-93
2023/10/01 14:16:22;;;;;;;0.95;0.57;;;18.10;99.90;;;;;;4983094;28;20026;-93
2023/10/01 14:18:55;;;;;;;0.57;0.15;;;18.10;99.90;;;;;;4988921;28;20117;-93
2023/10/01 14:21:26;;;;;;;0.50;0.30;;;18.10;99.90;;;;;;4987799;28;20267;-94
2023/10/01 14:23:52;;;;;;;;;;;18.10;99.90;;;;;;4987094;28;20034;-94
2023/10/01 14:26:26;;;;;;;0.32;0.20;;;18.10;99.90;;;;;;4986315;28;19961;-93
2023/10/01 14:28:55;;;;;;;0.43;0.30;;;18.10;99.90;;;;;;4987244;28;20033;-93
2023/10/01 14:34:09;;;;;;;0.85;0.40;;;18.10;99.90;;;;;;5002793;28;20049;-93
2023/10/01 14:36:45;;;;;;;6.15;1.23;;;18.20;99.90;;;;;;4984401;28;20125;-95
2023/10/01 14:39:12;;;;;;;1.45;0.60;;;18.20;99.90;;;;;;4980898;28;20038;-94
2023/10/01 14:41:43;;;;;;;4.65;0.50;;;18.20;99.90;;;;;;4980935;28;20019;-92
2023/10/01 14:44:24;;;;;;;1.27;0.70;;;18.20;99.90;;;;;;4977631;28;20022;-93
2023/10/01 14:46:52;;;;;;;1.15;0.57;;;18.30;99.90;;;;;;4978004;28;20188;-93
2023/10/01 14:49:19;;;;;;;0.65;0.40;;;18.40;99.90;;;;;;4977573;28;20014;-92
2023/10/01 14:51:56;;;;;;;0.55;0.30;;;18.50;99.90;;;;;;4978421;28;20027;-92
2023/10/01 14:54:22;;;;;;;0.95;0.40;;;18.80;99.90;;;;;;4979867;28;20077;-93
2023/10/01 14:56:58;;;;;;;1.15;0.50;;;18.90;99.90;;;;;;4982661;28;20047;-91
2023/10/01 14:59:29;;;;;;;1.77;1.42;;;19.00;99.90;;;;;;4984874;28;20027;-93
2023/10/01 15:02:15;;;;;;;1.70;0.93;;;19.10;99.90;;;;;;4972315;28;20049;-94
2023/10/01 15:04:41;;;;;;;1.42;0.35;;;19.20;99.90;;;;;;4986679;28;20037;-91